N480SP MYNN-KFLL
Flight info
| Callsign | N480SP |
|---|---|
| Flight time | N/A |
| Altitude | 12000 |
| Route | MYNN 14 DCT ZBV DCT DEKAL DEKAL9 KFLL 10L |
| Aircraft | A36T/L-SDG/C |
Departure
| Time | 2026-05-04 03:05 |
|---|---|
| Airport | Lynden Pindling International Airport (MYNN) |
Arrival
| Time | N/A |
|---|---|
| Airport | Fort Lauderdale Hollywood International Airport (KFLL) |
| Time | Latitude | Longitude | Altitude | Speed | Heading |
|---|---|---|---|---|---|
| 2026-05-04 02:54 | 25.04691 | -77.46470 | 11 ft | 0 kts | 135° |
| 2026-05-04 03:02 | 25.04690 | -77.46469 | 11 ft | 3 kts | 135° |
| 2026-05-04 03:02 | 25.04619 | -77.46534 | 11 ft | 12 kts | 258° |
| 2026-05-04 03:02 | 25.04662 | -77.46602 | 11 ft | 14 kts | 318° |
| 2026-05-04 03:03 | 25.04737 | -77.46698 | 11 ft | 17 kts | 277° |
| 2026-05-04 03:03 | 25.04730 | -77.46809 | 12 ft | 20 kts | 316° |
| 2026-05-04 03:03 | 25.04839 | -77.46928 | 12 ft | 25 kts | 313° |
| 2026-05-04 03:03 | 25.04957 | -77.47063 | 12 ft | 18 kts | 316° |
| 2026-05-04 03:04 | 25.05038 | -77.47151 | 12 ft | 26 kts | 313° |
| 2026-05-04 03:04 | 25.05198 | -77.47332 | 12 ft | 30 kts | 307° |
| 2026-05-04 03:04 | 25.05215 | -77.47442 | 13 ft | 7 kts | 255° |
| 2026-05-04 03:04 | 25.05174 | -77.47520 | 15 ft | 18 kts | 203° |
| 2026-05-04 03:05 | 25.04923 | -77.47281 | 14 ft | 91 kts | 134° |
| 2026-05-04 03:05 | 25.04399 | -77.46655 | 373 ft | 120 kts | 127° |
| 2026-05-04 03:05 | 25.03798 | -77.45974 | 1133 ft | 117 kts | 139° |
| 2026-05-04 03:05 | 25.03212 | -77.45388 | 1895 ft | 115 kts | 137° |
| 2026-05-04 03:06 | 25.02618 | -77.44770 | 2507 ft | 115 kts | 134° |
| 2026-05-04 03:06 | 25.02068 | -77.44120 | 3093 ft | 121 kts | 137° |
| 2026-05-04 03:06 | 25.01201 | -77.43925 | 3380 ft | 143 kts | 201° |
| 2026-05-04 03:06 | 25.00285 | -77.43996 | 4028 ft | 137 kts | 168° |
| 2026-05-04 03:07 | 24.99283 | -77.43787 | 4377 ft | 148 kts | 175° |
| 2026-05-04 03:07 | 24.98311 | -77.43859 | 5088 ft | 137 kts | 192° |
| 2026-05-04 03:07 | 24.97471 | -77.44349 | 5547 ft | 139 kts | 227° |
| 2026-05-04 03:07 | 24.97015 | -77.45191 | 6321 ft | 126 kts | 252° |
| 2026-05-04 03:08 | 24.97014 | -77.46251 | 6454 ft | 159 kts | 285° |
| 2026-05-04 03:08 | 24.97697 | -77.47284 | 6129 ft | 171 kts | 310° |
| 2026-05-04 03:08 | 24.98629 | -77.48086 | 6029 ft | 169 kts | 332° |
| 2026-05-04 03:08 | 24.99681 | -77.48616 | 6073 ft | 165 kts | 332° |
| 2026-05-04 03:09 | 25.00723 | -77.49155 | 6080 ft | 169 kts | 332° |
| 2026-05-04 03:09 | 25.01793 | -77.49703 | 6085 ft | 170 kts | 332° |
| 2026-05-04 03:09 | 25.02873 | -77.50256 | 6081 ft | 171 kts | 332° |
| 2026-05-04 03:09 | 25.03948 | -77.50805 | 6150 ft | 166 kts | 332° |
| 2026-05-04 03:10 | 25.04983 | -77.51339 | 6399 ft | 163 kts | 332° |
| 2026-05-04 03:10 | 25.05998 | -77.51858 | 6623 ft | 163 kts | 332° |
| 2026-05-04 03:10 | 25.07029 | -77.52386 | 6854 ft | 163 kts | 332° |
| 2026-05-04 03:10 | 25.08051 | -77.52908 | 7153 ft | 159 kts | 332° |
| 2026-05-04 03:11 | 25.09039 | -77.53414 | 7506 ft | 154 kts | 331° |
| 2026-05-04 03:11 | 25.10005 | -77.53909 | 7858 ft | 152 kts | 331° |
| 2026-05-04 03:11 | 25.10962 | -77.54399 | 8210 ft | 151 kts | 330° |
| 2026-05-04 03:11 | 25.11901 | -77.54909 | 8565 ft | 150 kts | 323° |
| 2026-05-04 03:12 | 25.12687 | -77.55619 | 8909 ft | 147 kts | 309° |
| 2026-05-04 03:12 | 25.13253 | -77.56532 | 9265 ft | 142 kts | 289° |
| 2026-05-04 03:12 | 25.13642 | -77.57538 | 9625 ft | 142 kts | 288° |
| 2026-05-04 03:12 | 25.14002 | -77.58554 | 9985 ft | 142 kts | 287° |
| 2026-05-04 03:13 | 25.14351 | -77.59574 | 10313 ft | 141 kts | 285° |
| 2026-05-04 03:13 | 25.14692 | -77.60592 | 10637 ft | 141 kts | 285° |
| 2026-05-04 03:13 | 25.15028 | -77.61606 | 10977 ft | 140 kts | 285° |
| 2026-05-04 03:13 | 25.15358 | -77.62602 | 11311 ft | 140 kts | 284° |
| 2026-05-04 03:14 | 25.15693 | -77.63609 | 11649 ft | 139 kts | 284° |
| 2026-05-04 03:14 | 25.16024 | -77.64608 | 11975 ft | 140 kts | 284° |
| 2026-05-04 03:14 | 25.16378 | -77.65689 | 12009 ft | 160 kts | 285° |
| 2026-05-04 03:14 | 25.16779 | -77.66889 | 12014 ft | 172 kts | 285° |
| 2026-05-04 03:15 | 25.17201 | -77.68153 | 12012 ft | 178 kts | 285° |
| 2026-05-04 03:15 | 25.17630 | -77.69447 | 12011 ft | 181 kts | 285° |
| 2026-05-04 03:15 | 25.18063 | -77.70758 | 12009 ft | 182 kts | 285° |
| 2026-05-04 03:15 | 25.18494 | -77.72059 | 12008 ft | 183 kts | 285° |
| 2026-05-04 03:16 | 25.18931 | -77.73378 | 12004 ft | 183 kts | 285° |
| 2026-05-04 03:16 | 25.19369 | -77.74700 | 12003 ft | 183 kts | 285° |